Time;durP1;ratioP1;P1;durP2;ratioP2;P2;SDS_P1;SDS_P2;PMS_P1;PMS_P2;Temp;Humidity;BMP_temperature;BMP_pressure;BME280_temperature;BME280_humidity;BME280_pressure;Samples;Min_cycle;Max_cycle;Signal;HPM_P1;HPM_P2
2023/04/07 00:00:17;;;;;;;6.45;4.65;;;;;;;;;;8290728;28;20141;-61
2023/04/07 00:04:18;;;;;;;7.25;4.57;;;;;;;;;;8288893;28;20018;-61
2023/04/07 00:08:18;;;;;;;7.40;4.93;;;;;;;;;;8289607;28;20030;-61
2023/04/07 00:12:18;;;;;;;8.10;5.03;;;;;;;;;;8289030;28;20568;-62
2023/04/07 00:16:18;;;;;;;7.18;3.90;;;;;;;;;;8291688;28;20438;-61
2023/04/07 00:20:18;;;;;;;6.70;4.65;;;;;;;;;;8292634;28;20381;-61
2023/04/07 00:24:19;;;;;;;7.53;5.18;;;;;;;;;;8294941;28;20362;-61
2023/04/07 00:28:19;;;;;;;5.15;4.15;;;;;;;;;;8294321;28;20485;-61
2023/04/07 00:32:19;;;;;;;4.68;4.18;;;;;;;;;;8295350;28;20110;-61
2023/04/07 00:36:20;;;;;;;6.82;4.05;;;;;;;;;;8295363;28;20360;-61
2023/04/07 00:40:20;;;;;;;5.87;4.33;;;;;;;;;;8293988;28;20017;-61
2023/04/07 00:44:20;;;;;;;6.35;4.90;;;;;;;;;;8295391;28;20350;-61
2023/04/07 00:48:20;;;;;;;5.20;4.43;;;;;;;;;;8295349;28;20041;-62
2023/04/07 00:52:27;;;;;;;4.43;3.95;;;;;;;;;;8294356;28;20041;-61
2023/04/07 00:56:27;;;;;;;4.25;3.72;;;;;;;;;;8295993;28;20029;-61
2023/04/07 01:00:28;;;;;;;4.60;3.80;;;;;;;;;;8293054;28;20314;-61
2023/04/07 01:04:38;;;;;;;4.20;3.80;;;;;;;;;;8291449;28;20363;-61
2023/04/07 01:09:00;;;;;;;3.35;3.05;;;;;;;;;;8292557;28;20557;-61
2023/04/07 01:13:17;;;;;;;5.32;3.45;;;;;;;;;;8291655;28;20029;-61
2023/04/07 01:17:18;;;;;;;3.30;3.00;;;;;;;;;;8293765;28;20297;-61
2023/04/07 01:21:18;;;;;;;3.30;3.00;;;;;;;;;;8292026;28;20030;-61
2023/04/07 01:25:18;;;;;;;3.80;3.17;;;;;;;;;;8294906;28;20533;-61
2023/04/07 01:29:27;;;;;;;3.67;3.00;;;;;;;;;;8293615;28;20079;-61
2023/04/07 01:33:30;;;;;;;3.60;3.10;;;;;;;;;;8292052;28;20037;-61
2023/04/07 01:37:31;;;;;;;5.82;3.30;;;;;;;;;;8292195;28;20557;-61
2023/04/07 01:41:31;;;;;;;3.60;3.30;;;;;;;;;;8291439;28;20394;-61
2023/04/07 01:45:33;;;;;;;5.85;3.53;;;;;;;;;;8292968;28;20459;-61
2023/04/07 01:49:34;;;;;;;5.53;3.60;;;;;;;;;;8291871;28;20547;-61
2023/04/07 01:53:38;;;;;;;5.93;3.55;;;;;;;;;;8293378;28;20048;-61
2023/04/07 01:57:38;;;;;;;5.97;3.80;;;;;;;;;;8293158;28;20033;-61
2023/04/07 02:01:38;;;;;;;4.18;3.53;;;;;;;;;;8292526;28;20036;-61
2023/04/07 02:05:39;;;;;;;4.03;3.60;;;;;;;;;;8293799;28;20554;-61
2023/04/07 02:09:41;;;;;;;7.05;4.35;;;;;;;;;;8293711;28;20559;-61
2023/04/07 02:13:42;;;;;;;4.47;3.67;;;;;;;;;;8291650;28;20033;-61
2023/04/07 02:17:44;;;;;;;4.47;3.33;;;;;;;;;;8292314;28;20047;-61
2023/04/07 02:21:45;;;;;;;4.10;3.35;;;;;;;;;;8293257;28;20341;-61
2023/04/07 02:25:46;;;;;;;4.93;3.20;;;;;;;;;;8293812;28;20021;-61
2023/04/07 02:29:46;;;;;;;5.80;3.63;;;;;;;;;;8289678;28;20036;-61
2023/04/07 02:33:46;;;;;;;6.25;5.00;;;;;;;;;;8276569;28;20620;-61
2023/04/07 02:37:46;;;;;;;6.40;4.82;;;;;;;;;;8291328;28;20025;-61
2023/04/07 02:41:47;;;;;;;5.47;4.18;;;;;;;;;;8291766;28;20108;-61
2023/04/07 02:45:47;;;;;;;10.90;7.28;;;;;;;;;;8290348;28;20506;-61
2023/04/07 02:49:47;;;;;;;8.00;5.68;;;;;;;;;;8287012;28;20038;-61
2023/04/07 02:53:47;;;;;;;7.05;6.03;;;;;;;;;;8290408;28;20386;-61
2023/04/07 02:57:47;;;;;;;9.82;6.63;;;;;;;;;;8287261;28;20028;-61
2023/04/07 03:01:47;;;;;;;8.68;6.72;;;;;;;;;;8289758;28;20034;-61
2023/04/07 03:05:47;;;;;;;7.75;6.93;;;;;;;;;;8271026;28;20018;-61
2023/04/07 03:09:48;;;;;;;9.55;7.15;;;;;;;;;;8289351;28;20037;-61
2023/04/07 03:13:48;;;;;;;11.35;7.10;;;;;;;;;;8286403;28;20544;-61
2023/04/07 03:17:48;;;;;;;9.60;6.00;;;;;;;;;;8278816;28;20080;-61
2023/04/07 03:21:48;;;;;;;8.98;6.50;;;;;;;;;;8287627;28;20037;-61
2023/04/07 03:25:49;;;;;;;9.55;6.47;;;;;;;;;;8288819;28;20044;-61
2023/04/07 03:29:50;;;;;;;7.65;5.90;;;;;;;;;;8287676;28;20465;-61
2023/04/07 03:33:50;;;;;;;7.53;5.65;;;;;;;;;;8288122;28;20136;-61
2023/04/07 03:37:50;;;;;;;7.28;4.80;;;;;;;;;;8287832;28;20030;-61
2023/04/07 03:41:50;;;;;;;6.60;4.55;;;;;;;;;;8287095;28;20477;-61
2023/04/07 03:45:54;;;;;;;6.78;4.57;;;;;;;;;;8287186;28;20325;-61
2023/04/07 03:49:55;;;;;;;9.67;4.50;;;;;;;;;;8289506;28;20025;-61
2023/04/07 03:53:55;;;;;;;7.80;4.20;;;;;;;;;;8297499;28;20028;-61
2023/04/07 03:57:55;;;;;;;6.28;4.82;;;;;;;;;;8296052;28;20037;-61
2023/04/07 04:01:55;;;;;;;9.27;5.33;;;;;;;;;;8295637;28;20449;-61
2023/04/07 04:05:55;;;;;;;6.50;5.83;;;;;;;;;;8296225;28;20278;-62
2023/04/07 04:09:56;;;;;;;8.57;5.88;;;;;;;;;;8296297;28;20325;-61
2023/04/07 04:13:56;;;;;;;9.75;5.80;;;;;;;;;;8294119;28;20028;-61
2023/04/07 04:17:56;;;;;;;10.95;6.50;;;;;;;;;;8293630;28;20475;-61
2023/04/07 04:21:56;;;;;;;10.02;6.68;;;;;;;;;;8296262;28;20013;-61
2023/04/07 04:25:58;;;;;;;9.35;6.00;;;;;;;;;;8297052;28;20082;-61
2023/04/07 04:29:59;;;;;;;14.68;7.13;;;;;;;;;;8295818;28;20062;-61
2023/04/07 04:33:59;;;;;;;8.63;6.63;;;;;;;;;;8296493;28;20129;-61
2023/04/07 04:37:59;;;;;;;11.57;6.90;;;;;;;;;;8294428;28;20422;-61
2023/04/07 04:42:00;;;;;;;8.70;6.35;;;;;;;;;;8295214;28;20106;-61
2023/04/07 04:46:00;;;;;;;8.95;6.65;;;;;;;;;;8295765;28;20120;-61
2023/04/07 04:50:00;;;;;;;10.50;5.57;;;;;;;;;;8295535;28;20051;-61
2023/04/07 04:54:02;;;;;;;9.07;6.10;;;;;;;;;;8296492;28;20724;-61
2023/04/07 04:58:02;;;;;;;10.02;6.78;;;;;;;;;;8294930;28;20052;-61
2023/04/07 05:02:02;;;;;;;10.80;6.30;;;;;;;;;;8294064;28;20072;-61
2023/04/07 05:06:03;;;;;;;9.70;6.07;;;;;;;;;;8287496;28;20524;-61
2023/04/07 05:10:03;;;;;;;9.07;6.63;;;;;;;;;;8296172;28;20025;-61
2023/04/07 05:14:03;;;;;;;8.23;6.32;;;;;;;;;;8294255;28;20313;-61
2023/04/07 05:18:03;;;;;;;13.05;6.60;;;;;;;;;;8294514;28;20133;-61
2023/04/07 05:22:04;;;;;;;7.72;6.15;;;;;;;;;;8286527;28;20013;-61
2023/04/07 05:26:04;;;;;;;7.43;6.53;;;;;;;;;;8280482;28;20027;-61
2023/04/07 05:30:04;;;;;;;13.88;6.13;;;;;;;;;;8292841;28;20028;-62
2023/04/07 05:34:05;;;;;;;8.70;5.85;;;;;;;;;;8293905;28;20063;-61
2023/04/07 05:38:05;;;;;;;7.70;5.75;;;;;;;;;;8294061;28;21033;-61
2023/04/07 05:42:05;;;;;;;8.02;5.38;;;;;;;;;;8294651;28;20032;-61
2023/04/07 05:46:05;;;;;;;10.40;6.78;;;;;;;;;;8293147;28;20038;-61
2023/04/07 05:50:06;;;;;;;10.23;7.20;;;;;;;;;;8294583;28;20543;-61
2023/04/07 05:54:06;;;;;;;10.25;6.25;;;;;;;;;;8293250;28;20202;-61
2023/04/07 05:58:06;;;;;;;8.93;6.20;;;;;;;;;;8293628;28;20049;-61
2023/04/07 06:02:06;;;;;;;11.55;5.93;;;;;;;;;;8294507;28;20037;-61
2023/04/07 06:06:06;;;;;;;8.82;6.05;;;;;;;;;;8294543;28;20171;-61
2023/04/07 06:10:07;;;;;;;8.27;5.03;;;;;;;;;;8292760;28;20014;-61
2023/04/07 06:14:07;;;;;;;7.82;5.97;;;;;;;;;;8293017;28;20017;-61
2023/04/07 06:18:07;;;;;;;8.38;6.40;;;;;;;;;;8291498;28;20123;-61
2023/04/07 06:22:07;;;;;;;7.95;5.85;;;;;;;;;;8290607;28;20115;-61
2023/04/07 06:26:09;;;;;;;10.25;5.80;;;;;;;;;;8292245;28;20028;-61
2023/04/07 06:30:10;;;;;;;7.63;5.82;;;;;;;;;;8290798;28;20518;-61
2023/04/07 06:34:10;;;;;;;7.90;6.03;;;;;;;;;;8293343;28;20460;-62
2023/04/07 06:38:11;;;;;;;8.25;5.82;;;;;;;;;;8285796;28;20022;-61
2023/04/07 06:42:11;;;;;;;7.15;4.88;;;;;;;;;;8289275;28;20036;-61
2023/04/07 06:46:11;;;;;;;7.93;4.60;;;;;;;;;;8290560;28;20026;-61
2023/04/07 06:50:11;;;;;;;7.45;4.30;;;;;;;;;;8291635;28;20025;-61
2023/04/07 06:54:12;;;;;;;5.65;3.95;;;;;;;;;;8290250;28;20493;-62
2023/04/07 06:58:13;;;;;;;4.18;3.55;;;;;;;;;;8287017;28;20072;-62
2023/04/07 07:02:13;;;;;;;4.65;3.08;;;;;;;;;;8286233;28;20045;-62
2023/04/07 07:06:13;;;;;;;4.95;2.95;;;;;;;;;;8288993;28;20560;-61
2023/04/07 07:10:13;;;;;;;3.42;2.22;;;;;;;;;;8286031;28;20099;-61
2023/04/07 07:14:14;;;;;;;2.10;1.63;;;;;;;;;;8287019;28;20028;-61
2023/04/07 07:18:15;;;;;;;2.10;1.90;;;;;;;;;;8287947;28;20041;-62
2023/04/07 07:22:15;;;;;;;3.90;1.90;;;;;;;;;;8287663;28;20399;-62
2023/04/07 07:26:15;;;;;;;2.47;1.70;;;;;;;;;;8285489;28;20535;-62
2023/04/07 07:30:15;;;;;;;1.58;1.48;;;;;;;;;;8288132;28;20050;-62
2023/04/07 07:34:15;;;;;;;2.78;1.52;;;;;;;;;;8285537;28;20422;-61
2023/04/07 07:38:15;;;;;;;1.80;1.70;;;;;;;;;;8288253;28;20631;-61
2023/04/07 07:42:16;;;;;;;1.70;1.60;;;;;;;;;;8286206;28;20025;-62
2023/04/07 07:46:16;;;;;;;1.75;1.17;;;;;;;;;;8286107;28;20317;-61
2023/04/07 07:50:16;;;;;;;1.92;1.45;;;;;;;;;;8286242;28;20025;-62
2023/04/07 07:54:16;;;;;;;1.60;1.30;;;;;;;;;;8286957;28;20025;-61
2023/04/07 07:58:16;;;;;;;1.25;1.17;;;;;;;;;;8285342;28;20076;-61
2023/04/07 08:02:17;;;;;;;2.07;1.47;;;;;;;;;;8288906;28;20893;-61
2023/04/07 08:06:17;;;;;;;1.50;1.40;;;;;;;;;;8287504;28;20268;-61
2023/04/07 08:10:19;;;;;;;2.28;1.63;;;;;;;;;;8285656;28;20128;-61
2023/04/07 08:14:19;;;;;;;2.75;1.58;;;;;;;;;;8286542;28;20519;-61
2023/04/07 08:18:19;;;;;;;2.10;1.60;;;;;;;;;;8286777;28;20037;-62
2023/04/07 08:22:20;;;;;;;2.57;1.47;;;;;;;;;;8286025;28;20053;-61
2023/04/07 08:26:20;;;;;;;3.20;1.50;;;;;;;;;;8284366;28;20321;-61
2023/04/07 08:30:21;;;;;;;1.60;1.50;;;;;;;;;;8285383;28;20021;-62
2023/04/07 08:34:21;;;;;;;2.50;1.73;;;;;;;;;;8287287;28;20029;-61
2023/04/07 08:38:21;;;;;;;1.70;1.52;;;;;;;;;;8289447;28;20440;-62
2023/04/07 08:42:26;;;;;;;1.63;1.45;;;;;;;;;;8292660;28;20036;-61
2023/04/07 08:46:26;;;;;;;2.08;1.73;;;;;;;;;;8292958;28;20041;-62
2023/04/07 08:50:27;;;;;;;1.75;1.45;;;;;;;;;;8293051;28;20036;-62
2023/04/07 08:54:27;;;;;;;2.72;1.98;;;;;;;;;;8291246;28;20024;-61
2023/04/07 08:58:28;;;;;;;1.30;1.20;;;;;;;;;;8291635;28;20029;-62
2023/04/07 09:02:29;;;;;;;1.63;1.13;;;;;;;;;;8292333;28;20106;-62
2023/04/07 09:06:30;;;;;;;1.48;1.23;;;;;;;;;;8292155;28;20036;-61
2023/04/07 09:10:31;;;;;;;1.02;0.93;;;;;;;;;;8292605;28;20029;-62
2023/04/07 09:14:31;;;;;;;0.90;0.80;;;;;;;;;;8290938;28;20025;-62
2023/04/07 09:18:31;;;;;;;1.10;1.00;;;;;;;;;;8291788;28;20041;-61
2023/04/07 09:22:39;;;;;;;0.80;0.80;;;;;;;;;;8291897;28;20832;-62
2023/04/07 09:26:39;;;;;;;1.50;0.80;;;;;;;;;;8290747;28;20036;-62
2023/04/07 09:30:51;;;;;;;1.25;1.15;;;;;;;;;;8291740;28;20032;-61
2023/04/07 09:34:57;;;;;;;1.27;1.15;;;;;;;;;;8291484;28;20027;-62
2023/04/07 09:39:06;;;;;;;0.82;0.82;;;;;;;;;;8292428;28;20027;-62
2023/04/07 09:43:13;;;;;;;2.15;1.42;;;;;;;;;;8292442;28;20029;-62
2023/04/07 09:47:13;;;;;;;2.92;1.83;;;;;;;;;;8291752;28;20042;-62
2023/04/07 09:51:15;;;;;;;2.97;1.98;;;;;;;;;;8292484;28;20516;-62
2023/04/07 09:55:16;;;;;;;2.20;1.55;;;;;;;;;;8292491;28;20033;-62
2023/04/07 09:59:16;;;;;;;1.08;1.08;;;;;;;;;;8291963;28;20543;-62
2023/04/07 10:03:16;;;;;;;0.95;0.95;;;;;;;;;;8293515;28;20600;-62
2023/04/07 10:07:16;;;;;;;0.80;0.80;;;;;;;;;;8292209;28;20021;-62
2023/04/07 10:11:17;;;;;;;0.90;0.90;;;;;;;;;;8290485;28;20900;-62
2023/04/07 10:15:17;;;;;;;1.17;1.07;;;;;;;;;;8291833;28;20210;-62
2023/04/07 10:19:18;;;;;;;0.90;0.90;;;;;;;;;;8292066;28;20028;-62
2023/04/07 10:23:20;;;;;;;1.30;1.20;;;;;;;;;;8291212;28;20127;-62
2023/04/07 10:27:26;;;;;;;1.40;1.30;;;;;;;;;;8282425;28;20715;-62
2023/04/07 10:31:26;;;;;;;1.40;1.30;;;;;;;;;;8291566;28;20361;-62
2023/04/07 10:35:28;;;;;;;1.10;1.00;;;;;;;;;;8291228;28;20442;-62
2023/04/07 10:39:28;;;;;;;1.17;1.08;;;;;;;;;;8290062;28;20029;-62
2023/04/07 10:43:38;;;;;;;1.58;0.80;;;;;;;;;;8290717;28;20041;-63
2023/04/07 10:47:59;;;;;;;2.35;0.90;;;;;;;;;;8290837;28;20088;-62
2023/04/07 10:52:20;;;;;;;0.90;0.80;;;;;;;;;;8290452;28;20258;-62
2023/04/07 10:56:21;;;;;;;0.88;0.88;;;;;;;;;;8291450;28;20441;-62
2023/04/07 11:00:21;;;;;;;1.20;1.10;;;;;;;;;;8288572;28;20033;-63
2023/04/07 11:04:21;;;;;;;0.80;0.80;;;;;;;;;;8291076;28;20049;-62
2023/04/07 11:08:43;;;;;;;2.28;1.15;;;;;;;;;;8289539;28;20017;-62
2023/04/07 11:12:43;;;;;;;1.17;1.10;;;;;;;;;;8290432;28;20095;-62
2023/04/07 11:16:44;;;;;;;3.93;2.03;;;;;;;;;;8288970;28;20049;-62
2023/04/07 11:20:55;;;;;;;1.75;1.48;;;;;;;;;;8290799;28;20382;-62
2023/04/07 11:24:55;;;;;;;1.25;1.15;;;;;;;;;;8289688;28;20232;-62
2023/04/07 11:28:57;;;;;;;1.30;1.20;;;;;;;;;;8288082;28;20291;-62
2023/04/07 11:32:57;;;;;;;1.20;1.10;;;;;;;;;;8289663;28;20557;-62
2023/04/07 11:37:17;;;;;;;1.70;1.10;;;;;;;;;;8291194;28;20033;-62
2023/04/07 11:41:17;;;;;;;2.42;1.20;;;;;;;;;;8289286;28;20107;-63
2023/04/07 11:45:18;;;;;;;1.00;1.00;;;;;;;;;;8290099;28;20017;-62
2023/04/07 11:49:18;;;;;;;1.38;1.00;;;;;;;;;;8288458;28;20037;-62
2023/04/07 11:53:26;;;;;;;0.90;0.90;;;;;;;;;;8290593;28;20498;-62
2023/04/07 11:57:26;;;;;;;0.93;0.93;;;;;;;;;;8290766;28;20072;-63
2023/04/07 12:01:38;;;;;;;1.00;1.00;;;;;;;;;;8287286;28;20738;-62
2023/04/07 12:05:41;;;;;;;1.35;1.25;;;;;;;;;;8288839;28;20017;-62
2023/04/07 12:09:42;;;;;;;1.27;1.17;;;;;;;;;;8288767;28;20255;-63
2023/04/07 12:13:42;;;;;;;1.10;1.10;;;;;;;;;;8295849;28;20033;-63
2023/04/07 12:17:46;;;;;;;1.38;1.27;;;;;;;;;;8295515;28;20033;-63
2023/04/07 12:21:46;;;;;;;1.20;1.10;;;;;;;;;;8295663;28;20119;-63
2023/04/07 12:25:46;;;;;;;1.42;1.33;;;;;;;;;;8297285;28;20556;-63
2023/04/07 12:29:47;;;;;;;1.05;1.05;;;;;;;;;;8294696;28;20040;-63
2023/04/07 12:33:47;;;;;;;1.15;1.08;;;;;;;;;;8295439;28;20518;-63
2023/04/07 12:37:48;;;;;;;1.38;1.20;;;;;;;;;;8294632;28;20302;-63
2023/04/07 12:41:51;;;;;;;1.20;1.10;;;;;;;;;;8295393;28;20037;-63
2023/04/07 12:45:51;;;;;;;1.52;1.42;;;;;;;;;;8292741;28;20064;-63
2023/04/07 12:49:52;;;;;;;3.10;1.30;;;;;;;;;;8295966;28;20033;-63
2023/04/07 12:53:53;;;;;;;1.00;1.00;;;;;;;;;;8294668;28;20095;-63
2023/04/07 12:57:54;;;;;;;1.73;1.10;;;;;;;;;;8294621;28;20030;-63
2023/04/07 13:01:54;;;;;;;1.40;1.33;;;;;;;;;;8294851;28;20088;-63
2023/04/07 13:05:59;;;;;;;2.33;2.13;;;;;;;;;;8293341;28;20565;-62
2023/04/07 13:10:00;;;;;;;1.70;1.60;;;;;;;;;;8297337;28;20282;-63
2023/04/07 13:14:00;;;;;;;1.38;1.25;;;;;;;;;;8295691;28;20833;-63
2023/04/07 13:18:01;;;;;;;1.73;1.25;;;;;;;;;;8294189;28;20457;-62
2023/04/07 13:22:01;;;;;;;1.38;1.13;;;;;;;;;;8278089;28;20506;-63
2023/04/07 13:26:02;;;;;;;1.40;1.30;;;;;;;;;;8293979;28;20385;-63
2023/04/07 13:30:02;;;;;;;1.67;1.35;;;;;;;;;;8292895;28;20025;-63
2023/04/07 13:34:02;;;;;;;1.60;1.50;;;;;;;;;;8295200;28;20782;-62
2023/04/07 13:38:02;;;;;;;2.25;2.00;;;;;;;;;;8292364;28;20118;-63
2023/04/07 13:42:04;;;;;;;1.92;1.83;;;;;;;;;;8294155;28;20112;-63
2023/04/07 13:46:04;;;;;;;2.50;2.30;;;;;;;;;;8276261;28;20044;-62
2023/04/07 13:50:04;;;;;;;3.95;2.80;;;;;;;;;;8293623;28;20035;-62
2023/04/07 13:54:05;;;;;;;2.55;2.30;;;;;;;;;;8294659;28;20048;-63
2023/04/07 13:58:05;;;;;;;2.33;2.00;;;;;;;;;;8290277;28;20174;-62
2023/04/07 14:02:05;;;;;;;3.88;2.45;;;;;;;;;;8292163;28;20739;-62
2023/04/07 14:06:06;;;;;;;2.72;2.42;;;;;;;;;;8293016;28;20575;-63
2023/04/07 14:10:06;;;;;;;3.08;2.65;;;;;;;;;;8292789;28;20371;-63
2023/04/07 14:14:06;;;;;;;3.47;2.25;;;;;;;;;;8292408;28;20424;-63
2023/04/07 14:18:07;;;;;;;2.70;2.30;;;;;;;;;;8291337;28;20045;-62
2023/04/07 14:22:07;;;;;;;4.15;2.72;;;;;;;;;;8293957;28;20114;-62
2023/04/07 14:26:10;;;;;;;3.08;2.78;;;;;;;;;;8292165;28;20030;-62
2023/04/07 14:30:11;;;;;;;4.13;2.97;;;;;;;;;;8291924;28;20061;-63
2023/04/07 14:34:11;;;;;;;5.57;2.70;;;;;;;;;;8291977;28;20020;-62
2023/04/07 14:38:11;;;;;;;3.70;2.55;;;;;;;;;;8290969;28;20418;-63
2023/04/07 14:42:11;;;;;;;2.70;2.28;;;;;;;;;;8289910;28;20059;-62
2023/04/07 14:46:13;;;;;;;4.13;2.55;;;;;;;;;;8289338;28;20601;-62
2023/04/07 14:50:13;;;;;;;3.40;2.67;;;;;;;;;;8291143;28;20126;-62
2023/04/07 14:54:13;;;;;;;3.25;2.72;;;;;;;;;;8290055;28;20522;-62
2023/04/07 14:58:14;;;;;;;4.72;3.00;;;;;;;;;;8290699;28;20144;-63
2023/04/07 15:02:14;;;;;;;4.40;3.33;;;;;;;;;;8290118;28;20540;-62
2023/04/07 15:06:15;;;;;;;4.85;3.13;;;;;;;;;;8289638;28;20059;-62
2023/04/07 15:10:18;;;;;;;7.13;2.90;;;;;;;;;;8290452;28;20048;-62
2023/04/07 15:14:18;;;;;;;3.47;3.05;;;;;;;;;;8291223;28;20310;-62
2023/04/07 15:18:18;;;;;;;6.90;3.63;;;;;;;;;;8288556;28;20522;-62
2023/04/07 15:22:19;;;;;;;4.00;3.55;;;;;;;;;;8291250;28;20315;-62
2023/04/07 15:26:20;;;;;;;4.57;3.50;;;;;;;;;;8291869;28;20044;-62
2023/04/07 15:30:20;;;;;;;4.55;3.58;;;;;;;;;;8289289;28;20561;-62
2023/04/07 15:34:20;;;;;;;5.00;3.45;;;;;;;;;;8289879;28;20112;-62
2023/04/07 15:38:20;;;;;;;5.60;3.42;;;;;;;;;;8289757;28;20235;-62
2023/04/07 15:42:20;;;;;;;3.83;2.83;;;;;;;;;;8288619;28;20405;-62
2023/04/07 15:46:21;;;;;;;5.47;3.20;;;;;;;;;;8289972;28;20037;-62
2023/04/07 15:50:21;;;;;;;5.85;3.47;;;;;;;;;;8289444;28;20083;-62
2023/04/07 15:54:21;;;;;;;5.47;3.42;;;;;;;;;;8290367;28;20111;-62
2023/04/07 15:58:21;;;;;;;5.00;3.55;;;;;;;;;;8289398;28;20378;-62
2023/04/07 16:02:21;;;;;;;5.20;3.08;;;;;;;;;;8289962;28;20441;-62
2023/04/07 16:06:21;;;;;;;5.32;3.58;;;;;;;;;;8290243;28;20017;-62
2023/04/07 16:10:22;;;;;;;5.40;3.67;;;;;;;;;;8291124;28;20874;-62
2023/04/07 16:14:22;;;;;;;5.38;3.60;;;;;;;;;;8288036;28;20102;-62
2023/04/07 16:18:22;;;;;;;6.32;3.78;;;;;;;;;;8288401;28;20041;-62
2023/04/07 16:22:22;;;;;;;4.57;3.08;;;;;;;;;;8290360;28;20072;-62
2023/04/07 16:26:22;;;;;;;4.22;3.30;;;;;;;;;;8287844;28;20027;-62
2023/04/07 16:30:23;;;;;;;4.97;3.50;;;;;;;;;;8288494;28;20033;-62
2023/04/07 16:34:24;;;;;;;5.63;4.03;;;;;;;;;;8287169;28;20498;-62
2023/04/07 16:38:26;;;;;;;4.93;3.67;;;;;;;;;;8289031;28;20057;-62
2023/04/07 16:42:29;;;;;;;6.43;4.13;;;;;;;;;;8288247;28;20513;-62
2023/04/07 16:46:30;;;;;;;4.63;3.63;;;;;;;;;;8288836;28;20678;-62
2023/04/07 16:50:30;;;;;;;4.25;3.35;;;;;;;;;;8288900;28;20485;-62
2023/04/07 16:54:32;;;;;;;5.10;3.55;;;;;;;;;;8282443;28;20029;-62
2023/04/07 16:58:32;;;;;;;5.18;3.65;;;;;;;;;;8289528;28;20433;-62
2023/04/07 17:02:33;;;;;;;4.10;3.50;;;;;;;;;;8294670;28;20082;-62
2023/04/07 17:06:33;;;;;;;4.28;3.10;;;;;;;;;;8291300;28;20029;-62
2023/04/07 17:10:33;;;;;;;5.18;3.30;;;;;;;;;;8293911;28;20048;-62
2023/04/07 17:14:34;;;;;;;4.03;3.28;;;;;;;;;;8291672;28;20032;-62
2023/04/07 17:18:34;;;;;;;5.77;3.77;;;;;;;;;;8286547;28;20558;-62
2023/04/07 17:22:34;;;;;;;5.63;3.80;;;;;;;;;;8287186;28;20271;-62
2023/04/07 17:26:35;;;;;;;5.53;3.17;;;;;;;;;;8289390;28;20041;-62
2023/04/07 17:30:36;;;;;;;4.03;3.40;;;;;;;;;;8291824;28;20036;-62
2023/04/07 17:34:36;;;;;;;5.03;3.50;;;;;;;;;;8293431;28;20529;-61
2023/04/07 17:38:36;;;;;;;4.63;3.53;;;;;;;;;;8294062;28;20481;-62
2023/04/07 17:42:37;;;;;;;5.13;3.75;;;;;;;;;;8289254;28;20544;-62
2023/04/07 17:46:37;;;;;;;4.35;3.28;;;;;;;;;;8288357;28;20036;-62
2023/04/07 17:50:38;;;;;;;4.63;3.28;;;;;;;;;;8289947;28;20020;-62
2023/04/07 17:54:38;;;;;;;5.30;3.63;;;;;;;;;;8289880;28;20025;-62
2023/04/07 17:58:38;;;;;;;6.10;3.92;;;;;;;;;;8284555;28;20025;-62
2023/04/07 18:02:39;;;;;;;5.00;3.60;;;;;;;;;;8284497;28;20464;-62
2023/04/07 18:06:39;;;;;;;6.43;3.33;;;;;;;;;;8286747;28;20442;-62
2023/04/07 18:10:39;;;;;;;4.95;3.35;;;;;;;;;;8288003;28;20028;-62
2023/04/07 18:14:39;;;;;;;3.45;3.15;;;;;;;;;;8288777;28;20527;-62
2023/04/07 18:18:40;;;;;;;3.38;2.95;;;;;;;;;;8287067;28;20516;-62
2023/04/07 18:22:41;;;;;;;3.67;3.10;;;;;;;;;;8286117;28;20025;-62
2023/04/07 18:26:44;;;;;;;4.35;2.45;;;;;;;;;;8284065;28;20160;-62
2023/04/07 18:30:45;;;;;;;3.33;2.55;;;;;;;;;;8284237;28;20072;-62
2023/04/07 18:34:46;;;;;;;4.50;3.20;;;;;;;;;;8287173;28;20192;-62
2023/04/07 18:38:47;;;;;;;3.47;3.00;;;;;;;;;;8287454;28;20317;-62
2023/04/07 18:42:47;;;;;;;3.80;3.30;;;;;;;;;;8282907;28;20026;-62
2023/04/07 18:46:47;;;;;;;4.50;3.08;;;;;;;;;;8287666;28;20046;-62
2023/04/07 18:50:49;;;;;;;3.70;3.13;;;;;;;;;;8281546;28;20327;-62
2023/04/07 18:54:49;;;;;;;4.65;3.50;;;;;;;;;;8280052;28;20036;-62
2023/04/07 18:58:50;;;;;;;4.47;3.92;;;;;;;;;;8282699;28;20809;-62
2023/04/07 19:02:50;;;;;;;5.23;3.60;;;;;;;;;;8281558;28;20378;-62
2023/04/07 19:06:50;;;;;;;4.68;4.00;;;;;;;;;;8284734;28;20786;-62
2023/04/07 19:10:51;;;;;;;4.53;3.97;;;;;;;;;;8282654;28;20033;-62
2023/04/07 19:14:51;;;;;;;7.55;4.72;;;;;;;;;;8280619;28;20033;-62
2023/04/07 19:18:52;;;;;;;5.50;4.68;;;;;;;;;;8285250;28;20794;-62
2023/04/07 19:22:52;;;;;;;6.28;4.30;;;;;;;;;;8284311;28;20067;-62
2023/04/07 19:26:52;;;;;;;6.68;4.40;;;;;;;;;;8282237;28;20467;-62
2023/04/07 19:30:53;;;;;;;6.30;5.05;;;;;;;;;;8284351;28;20037;-62
2023/04/07 19:34:53;;;;;;;5.77;4.30;;;;;;;;;;8282190;28;20556;-62
2023/04/07 19:38:53;;;;;;;7.07;4.43;;;;;;;;;;8283872;28;20793;-62
2023/04/07 19:42:54;;;;;;;4.50;4.10;;;;;;;;;;8284171;28;20634;-62
2023/04/07 19:46:55;;;;;;;5.90;4.53;;;;;;;;;;8282697;28;20312;-62
2023/04/07 19:50:55;;;;;;;7.00;4.35;;;;;;;;;;8283440;28;20611;-62
2023/04/07 19:54:56;;;;;;;5.88;4.63;;;;;;;;;;8282271;28;20065;-62
2023/04/07 19:58:56;;;;;;;7.93;4.95;;;;;;;;;;8281801;28;20116;-62
2023/04/07 20:02:57;;;;;;;6.60;4.82;;;;;;;;;;8280054;28;21664;-62
2023/04/07 20:06:57;;;;;;;5.15;4.40;;;;;;;;;;8280945;28;20032;-62
2023/04/07 20:10:57;;;;;;;7.13;4.75;;;;;;;;;;8283273;28;20029;-62
2023/04/07 20:14:57;;;;;;;4.65;4.05;;;;;;;;;;8285802;28;20225;-62
2023/04/07 20:18:57;;;;;;;6.15;4.85;;;;;;;;;;8293771;28;20175;-62
2023/04/07 20:22:57;;;;;;;5.18;4.13;;;;;;;;;;8283735;28;20591;-62
2023/04/07 20:26:58;;;;;;;5.78;4.20;;;;;;;;;;8281118;28;20028;-62
2023/04/07 20:30:58;;;;;;;6.03;4.38;;;;;;;;;;8285295;28;21023;-62
2023/04/07 20:34:58;;;;;;;8.13;5.32;;;;;;;;;;8288289;28;20029;-62
2023/04/07 20:38:58;;;;;;;7.57;5.90;;;;;;;;;;8289029;28;20310;-62
2023/04/07 20:42:59;;;;;;;9.13;5.88;;;;;;;;;;8288212;28;20124;-62
2023/04/07 20:47:05;;;;;;;8.57;5.67;;;;;;;;;;8291273;28;20972;-62
2023/04/07 20:51:05;;;;;;;7.47;5.32;;;;;;;;;;8291548;28;20286;-62
2023/04/07 20:55:06;;;;;;;8.35;5.97;;;;;;;;;;8290217;28;20144;-62
2023/04/07 20:59:06;;;;;;;9.05;5.53;;;;;;;;;;8287248;28;20350;-62
2023/04/07 21:03:06;;;;;;;9.23;5.93;;;;;;;;;;8286212;28;20040;-62
2023/04/07 21:07:06;;;;;;;8.50;5.38;;;;;;;;;;8293124;28;20074;-62
2023/04/07 21:11:08;;;;;;;7.93;5.73;;;;;;;;;;8290562;28;20036;-62
2023/04/07 21:15:08;;;;;;;8.02;5.68;;;;;;;;;;8295207;28;20449;-62
2023/04/07 21:19:08;;;;;;;8.68;5.50;;;;;;;;;;8291455;28;20049;-62
2023/04/07 21:23:09;;;;;;;10.60;5.75;;;;;;;;;;8293533;28;20029;-62
2023/04/07 21:27:10;;;;;;;7.65;5.43;;;;;;;;;;8293301;28;20215;-62
2023/04/07 21:31:18;;;;;;;7.78;5.15;;;;;;;;;;8295746;28;20044;-62
2023/04/07 21:35:19;;;;;;;6.72;5.22;;;;;;;;;;8292328;28;20079;-62
2023/04/07 21:39:19;;;;;;;8.02;5.97;;;;;;;;;;8289552;28;20091;-62
2023/04/07 21:43:21;;;;;;;6.80;5.00;;;;;;;;;;8294114;28;20034;-61
2023/04/07 21:47:21;;;;;;;7.38;5.75;;;;;;;;;;8297026;28;20053;-62
2023/04/07 21:51:21;;;;;;;8.13;6.03;;;;;;;;;;8292812;28;20028;-61
2023/04/07 21:55:22;;;;;;;6.78;5.20;;;;;;;;;;8292107;28;20444;-62
2023/04/07 21:59:22;;;;;;;6.80;5.07;;;;;;;;;;8291613;28;20144;-62
2023/04/07 22:03:22;;;;;;;9.20;5.40;;;;;;;;;;8291929;28;20030;-62
2023/04/07 22:07:22;;;;;;;6.83;5.03;;;;;;;;;;8296298;28;20024;-62
2023/04/07 22:11:22;;;;;;;8.60;6.07;;;;;;;;;;8289313;28;20274;-62
2023/04/07 22:15:22;;;;;;;9.85;6.18;;;;;;;;;;8299242;28;20785;-62
2023/04/07 22:19:23;;;;;;;8.43;6.43;;;;;;;;;;8300447;28;20139;-62
2023/04/07 22:23:23;;;;;;;9.35;6.95;;;;;;;;;;8300205;28;20018;-62
2023/04/07 22:27:23;;;;;;;10.32;6.30;;;;;;;;;;8299956;28;20017;-62
2023/04/07 22:31:23;;;;;;;7.30;6.17;;;;;;;;;;8299748;28;20069;-62
2023/04/07 22:35:23;;;;;;;10.32;6.63;;;;;;;;;;8300367;28;20271;-62
2023/04/07 22:39:24;;;;;;;7.82;6.07;;;;;;;;;;8299118;28;20124;-62
2023/04/07 22:43:24;;;;;;;9.68;6.82;;;;;;;;;;8298733;28;20029;-62
2023/04/07 22:47:24;;;;;;;11.25;6.80;;;;;;;;;;8297091;28;20049;-62
2023/04/07 22:51:25;;;;;;;8.83;6.73;;;;;;;;;;8297737;28;20033;-62
2023/04/07 22:55:26;;;;;;;10.35;6.88;;;;;;;;;;8298740;28;20686;-62
2023/04/07 22:59:26;;;;;;;13.25;8.35;;;;;;;;;;8299320;28;20040;-62
2023/04/07 23:03:26;;;;;;;12.15;8.50;;;;;;;;;;8299076;28;20038;-62
2023/04/07 23:07:26;;;;;;;10.43;7.90;;;;;;;;;;8298878;28;20017;-62
2023/04/07 23:11:26;;;;;;;10.25;7.63;;;;;;;;;;8297284;28;20021;-62
2023/04/07 23:15:27;;;;;;;11.70;7.55;;;;;;;;;;8298315;28;20038;-62
2023/04/07 23:19:27;;;;;;;12.82;8.48;;;;;;;;;;8300040;28;20032;-62
2023/04/07 23:23:27;;;;;;;13.00;8.32;;;;;;;;;;8299236;28;20122;-62
2023/04/07 23:27:27;;;;;;;12.23;8.57;;;;;;;;;;8297230;28;20690;-62
2023/04/07 23:31:27;;;;;;;10.90;7.57;;;;;;;;;;8298386;28;20052;-62
2023/04/07 23:35:27;;;;;;;10.73;7.78;;;;;;;;;;8298387;28;20027;-62
2023/04/07 23:39:28;;;;;;;10.10;7.57;;;;;;;;;;8298358;28;20021;-62
2023/04/07 23:43:28;;;;;;;10.48;7.65;;;;;;;;;;8298502;28;20128;-62
2023/04/07 23:47:28;;;;;;;10.63;7.97;;;;;;;;;;8297616;28;20044;-61
2023/04/07 23:51:29;;;;;;;11.65;7.70;;;;;;;;;;8298406;28;20025;-62
2023/04/07 23:55:30;;;;;;;10.60;7.85;;;;;;;;;;8298185;28;20063;-62
2023/04/07 23:59:30;;;;;;;9.80;7.70;;;;;;;;;;8297549;28;20025;-62
